Time;durP1;ratioP1;P1;durP2;ratioP2;P2;SDS_P1;SDS_P2;PMS_P1;PMS_P2;Temp;Humidity;BMP_temperature;BMP_pressure;BME280_temperature;BME280_humidity;BME280_pressure;Samples;Min_cycle;Max_cycle;Signal;HPM_P1;HPM_P2
2021/11/21 00:00:40;;;;;;;7.93;5.90;;;;;;;18.21;29.46;94717.06;5073927;28;20045;-55
2021/11/21 00:03:08;;;;;;;6.85;6.13;;;;;;;18.21;29.71;94729.50;5044682;28;20466;-55
2021/11/21 00:05:40;;;;;;;6.78;5.10;;;;;;;17.85;29.87;94723.75;5056608;28;20061;-58
2021/11/21 00:08:08;;;;;;;7.25;6.13;;;;;;;17.83;30.22;94725.94;5077825;28;20394;-60
2021/11/21 00:10:36;;;;;;;7.15;6.13;;;;;;;17.84;30.16;94732.78;5061591;28;20044;-55
2021/11/21 00:13:04;;;;;;;6.75;6.05;;;;;;;17.67;30.34;94730.25;5067951;28;20055;-56
2021/11/21 00:15:32;;;;;;;7.75;6.38;;;;;;;17.99;29.84;94733.31;5077442;28;20047;-55
2021/11/21 00:18:00;;;;;;;6.70;5.90;;;;;;;18.04;29.60;94725.16;5077588;28;20044;-54
2021/11/21 00:20:27;;;;;;;6.78;5.97;;;;;;;18.33;29.19;94725.06;5077338;28;20463;-54
2021/11/21 00:22:54;;;;;;;6.80;6.10;;;;;;;18.31;29.39;94735.19;5071899;28;20358;-55
2021/11/21 00:25:22;;;;;;;7.00;6.30;;;;;;;18.20;29.33;94728.75;5076854;28;20060;-55
2021/11/21 00:27:49;;;;;;;7.43;6.40;;;;;;;17.93;29.83;94722.13;5076582;28;20044;-58
2021/11/21 00:30:16;;;;;;;8.77;7.57;;;;;;;17.45;30.81;94726.03;5071936;28;20059;-59
2021/11/21 00:32:43;;;;;;;9.43;8.00;;;;;;;17.71;30.40;94717.94;5064225;28;20064;-57
2021/11/21 00:35:11;;;;;;;9.85;8.43;;;;;;;17.73;30.13;94707.81;5077120;28;20044;-56
2021/11/21 00:37:38;;;;;;;13.07;10.07;;;;;;;17.80;29.91;94716.00;5077512;28;20355;-55
2021/11/21 00:40:07;;;;;;;11.82;10.50;;;;;;;17.64;30.18;94715.00;5076946;28;20040;-55
2021/11/21 00:42:34;;;;;;;11.07;9.70;;;;;;;17.24;31.06;94710.13;5076833;28;20055;-55
2021/11/21 00:45:03;;;;;;;11.02;9.77;;;;;;;17.59;30.46;94701.97;5076175;28;20083;-57
2021/11/21 00:47:30;;;;;;;12.70;10.93;;;;;;;17.11;31.05;94705.81;5076899;28;20055;-56
2021/11/21 00:49:58;;;;;;;11.07;9.63;;;;;;;16.86;31.34;94702.22;5072233;28;20363;-54
2021/11/21 00:52:25;;;;;;;10.65;8.73;;;;;;;16.84;31.57;94700.97;5067841;28;20048;-56
2021/11/21 00:54:55;;;;;;;9.15;8.23;;;;;;;16.41;32.39;94699.25;5074859;28;20064;-58
2021/11/21 00:57:22;;;;;;;10.18;8.98;;;;;;;16.87;31.59;94701.13;5056588;28;20456;-54
2021/11/21 00:59:49;;;;;;;11.13;8.88;;;;;;;17.06;31.01;94687.53;5067717;28;20055;-59
2021/11/21 01:02:16;;;;;;;16.55;12.63;;;;;;;16.41;32.33;94688.69;5076484;28;20040;-54
2021/11/21 01:04:46;;;;;;;18.05;13.95;;;;;;;16.46;32.25;94685.09;5076615;28;20055;-54
2021/11/21 01:07:13;;;;;;;14.70;11.85;;;;;;;17.21;30.91;94688.84;5076438;28;20052;-58
2021/11/21 01:09:41;;;;;;;14.88;12.30;;;;;;;16.76;31.43;94688.59;5075543;28;20044;-60
2021/11/21 01:12:09;;;;;;;15.98;12.13;;;;;;;16.46;32.22;94691.16;5076341;28;20047;-54
2021/11/21 01:14:37;;;;;;;16.20;12.82;;;;;;;16.20;32.47;94677.25;5075321;28;20048;-56
2021/11/21 01:17:06;;;;;;;17.33;12.27;;;;;;;16.53;31.94;94677.47;5076410;28;20048;-57
2021/11/21 01:19:34;;;;;;;17.33;12.57;;;;;;;16.38;32.14;94681.38;5075946;28;20052;-56
2021/11/21 01:22:02;;;;;;;16.02;13.80;;;;;;;16.13;32.45;94676.91;5074976;28;20053;-57
2021/11/21 01:24:29;;;;;;;14.55;12.20;;;;;;;16.35;31.91;94674.09;5075384;28;20439;-57
2021/11/21 01:26:56;;;;;;;13.70;12.23;;;;;;;17.00;30.76;94678.25;5076110;28;20078;-57
2021/11/21 01:29:23;;;;;;;17.38;14.27;;;;;;;16.03;32.55;94665.63;5075620;28;20044;-58
2021/11/21 01:31:50;;;;;;;19.88;16.17;;;;;;;16.07;32.54;94663.13;5058452;28;20447;-56
2021/11/21 01:34:17;;;;;;;16.77;13.85;;;;;;;16.63;31.47;94672.59;5075789;28;20431;-58
2021/11/21 01:36:45;;;;;;;16.75;13.68;;;;;;;17.01;30.54;94663.94;5076207;28;20386;-55
2021/11/21 01:39:12;;;;;;;16.67;12.88;;;;;;;16.76;30.43;94659.56;5075499;28;20048;-54
2021/11/21 01:41:40;;;;;;;16.73;13.02;;;;;;;15.72;31.94;94647.34;5075973;28;20075;-59
2021/11/21 01:44:10;;;;;;;14.07;12.40;;;;;;;16.15;31.17;94651.03;5075737;28;20055;-61
2021/11/21 01:46:40;;;;;;;19.40;14.00;;;;;;;15.38;32.87;94647.34;5067246;28;20049;-53
2021/11/21 01:49:07;;;;;;;17.17;13.38;;;;;;;15.86;31.82;94641.13;5059879;28;20438;-60
2021/11/21 01:51:36;;;;;;;16.63;13.93;;;;;;;15.24;33.14;94651.94;5075144;28;20048;-59
2021/11/21 01:54:04;;;;;;;18.60;15.60;;;;;;;15.29;33.31;94639.41;5061773;28;20068;-61
2021/11/21 01:56:31;;;;;;;18.33;14.30;;;;;;;16.28;31.42;94642.16;5055778;28;20045;-53
2021/11/21 01:58:59;;;;;;;18.42;14.93;;;;;;;16.35;30.64;94642.44;5056019;28;20048;-58
2021/11/21 02:01:26;;;;;;;18.33;15.55;;;;;;;16.40;30.20;94641.50;5075485;28;20040;-57
2021/11/21 02:03:53;;;;;;;18.23;15.70;;;;;;;16.34;30.40;94636.38;5075253;28;20056;-60
2021/11/21 02:06:20;;;;;;;20.27;16.17;;;;;;;15.38;32.47;94634.94;5075378;28;20051;-58
2021/11/21 02:08:52;;;;;;;16.13;14.38;;;;;;;15.31;31.13;94633.81;5075140;28;20044;-58
2021/11/21 02:11:20;;;;;;;17.30;14.35;;;;;;;15.45;31.44;94631.06;5075343;28;20049;-58
2021/11/21 02:13:49;;;;;;;16.65;12.27;;;;;;;16.26;29.71;94636.41;5075220;28;20047;-58
2021/11/21 02:16:21;;;;;;;16.65;13.63;;;;;;;16.48;29.97;94635.41;5075378;28;20370;-61
2021/11/21 02:18:49;;;;;;;15.70;13.02;;;;;;;16.65;30.11;94640.59;5074208;28;20053;-58
2021/11/21 02:21:18;;;;;;;17.77;13.40;;;;;;;15.74;30.66;94639.13;5064310;28;20052;-58
2021/11/21 02:23:46;;;;;;;15.88;13.05;;;;;;;15.26;31.61;94633.97;5072056;28;20055;-56
2021/11/21 02:26:15;;;;;;;15.98;13.23;;;;;;;15.01;31.07;94633.63;5054982;28;20059;-57
2021/11/21 02:28:43;;;;;;;16.30;12.80;;;;;;;15.29;31.64;94634.13;5055167;28;20051;-58
2021/11/21 02:31:11;;;;;;;14.57;12.40;;;;;;;15.85;30.03;94635.09;5067206;28;20048;-62
2021/11/21 02:33:40;;;;;;;14.75;12.85;;;;;;;16.23;29.89;94629.13;5071811;28;20052;-54
2021/11/21 02:36:08;;;;;;;17.52;13.10;;;;;;;15.21;30.28;94636.78;5055006;28;20044;-57
2021/11/21 02:38:36;;;;;;;17.08;12.77;;;;;;;14.16;31.86;94629.59;5054843;28;20044;-52
2021/11/21 02:41:06;;;;;;;17.05;13.45;;;;;;;14.23;32.20;94637.81;5056222;28;20448;-55
2021/11/21 02:43:34;;;;;;;18.85;13.90;;;;;;;14.03;32.60;94631.19;5064888;28;20056;-55
2021/11/21 02:46:01;;;;;;;18.00;14.38;;;;;;;14.04;33.18;94624.88;5073494;28;20482;-55
2021/11/21 02:48:31;;;;;;;16.90;13.93;;;;;;;15.26;31.10;94623.44;5074697;28;20051;-54
2021/11/21 02:51:01;;;;;;;17.55;13.88;;;;;;;14.90;32.27;94611.31;5074436;28;20040;-54
2021/11/21 02:53:30;;;;;;;19.30;15.02;;;;;;;15.96;30.16;94617.88;5070044;28;20064;-53
2021/11/21 02:56:01;;;;;;;20.80;14.52;;;;;;;14.68;31.45;94614.81;5054675;28;20045;-55
2021/11/21 02:58:29;;;;;;;18.25;14.98;;;;;;;14.58;31.72;94620.38;5054479;28;20049;-54
2021/11/21 03:00:56;;;;;;;22.20;16.83;;;;;;;15.67;31.32;94623.03;5071516;28;20059;-57
2021/11/21 03:03:23;;;;;;;21.42;16.40;;;;;;;15.37;31.62;94620.22;5073758;28;20044;-56
2021/11/21 03:05:50;;;;;;;21.02;16.17;;;;;;;14.87;31.72;94619.06;5073440;28;20056;-57
2021/11/21 03:08:17;;;;;;;20.55;16.95;;;;;;;14.93;31.93;94615.19;5074709;28;20044;-54
2021/11/21 03:10:44;;;;;;;22.05;16.80;;;;;;;14.89;32.37;94620.31;5074602;28;20055;-55
2021/11/21 03:13:12;;;;;;;19.63;17.15;;;;;;;14.91;31.75;94617.38;5073647;28;20060;-59
2021/11/21 03:15:39;;;;;;;21.75;17.17;;;;;;;14.54;33.15;94619.41;5065734;28;20048;-55
2021/11/21 03:18:06;;;;;;;19.92;16.23;;;;;;;15.40;30.55;94614.31;5054390;28;20055;-55
2021/11/21 03:20:35;;;;;;;23.20;17.13;;;;;;;15.19;31.84;94608.13;5067510;28;20325;-53
2021/11/21 03:23:04;;;;;;;18.73;16.02;;;;;;;15.33;31.69;94614.00;5055807;28;20056;-58
2021/11/21 03:25:34;;;;;;;22.58;17.02;;;;;;;15.33;32.43;94614.00;5056516;28;20324;-53
2021/11/21 03:28:03;;;;;;;18.30;15.15;;;;;;;14.85;32.25;94618.59;5074263;28;20052;-55
2021/11/21 03:30:30;;;;;;;20.00;15.90;;;;;;;15.15;30.66;94617.72;5073986;28;20037;-55
2021/11/21 03:32:57;;;;;;;18.08;14.82;;;;;;;15.41;30.29;94613.25;5073982;28;20048;-52
2021/11/21 03:35:26;;;;;;;18.77;15.35;;;;;;;15.07;31.92;94615.81;5073997;28;20358;-55
2021/11/21 03:37:53;;;;;;;18.98;15.73;;;;;;;15.05;31.27;94615.34;5073978;28;20053;-60
2021/11/21 03:40:20;;;;;;;20.05;15.88;;;;;;;15.45;30.25;94621.28;5078030;28;20040;-52
2021/11/21 03:42:48;;;;;;;25.90;19.00;;;;;;;15.52;30.89;94615.56;5078023;28;20055;-55
2021/11/21 03:45:16;;;;;;;23.40;19.13;;;;;;;15.69;30.23;94618.22;5061640;28;20044;-55
2021/11/21 03:47:44;;;;;;;24.38;18.08;;;;;;;15.33;31.01;94614.00;5058252;28;20399;-55
2021/11/21 03:50:12;;;;;;;22.05;17.92;;;;;;;14.42;31.27;94606.81;5066399;28;20048;-54
2021/11/21 03:52:41;;;;;;;22.67;18.30;;;;;;;14.95;31.60;94618.28;5064891;28;20057;-55
2021/11/21 03:55:12;;;;;;;22.20;17.60;;;;;;;14.95;31.74;94613.81;5078176;28;20056;-57
2021/11/21 03:57:39;;;;;;;21.95;17.50;;;;;;;15.49;31.08;94616.19;5077987;28;20052;-56
2021/11/21 04:00:09;;;;;;;22.27;17.60;;;;;;;15.30;30.64;94625.16;5077450;28;20053;-56
2021/11/21 04:02:39;;;;;;;21.55;17.40;;;;;;;14.65;31.52;94615.44;5076242;28;20052;-59
2021/11/21 04:05:07;;;;;;;21.27;17.15;;;;;;;14.12;31.93;94618.13;5077927;28;20055;-56
2021/11/21 04:07:35;;;;;;;22.08;15.85;;;;;;;13.89;32.43;94617.38;5077777;28;20060;-57
2021/11/21 04:10:02;;;;;;;18.75;16.13;;;;;;;14.74;30.88;94618.09;5077355;28;20044;-54
2021/11/21 04:12:30;;;;;;;21.20;17.13;;;;;;;14.52;31.26;94618.94;5077684;28;20055;-56
2021/11/21 04:14:57;;;;;;;23.98;17.25;;;;;;;14.03;31.84;94625.94;5077391;28;20554;-58
2021/11/21 04:17:24;;;;;;;19.83;16.70;;;;;;;14.67;30.48;94623.81;5077425;28;20359;-55
2021/11/21 04:19:51;;;;;;;23.58;17.52;;;;;;;14.78;31.01;94622.44;5077104;28;20040;-58
2021/11/21 04:22:18;;;;;;;19.67;17.25;;;;;;;14.34;31.40;94620.72;5065837;28;20456;-57
2021/11/21 04:24:45;;;;;;;19.52;16.63;;;;;;;15.01;31.05;94617.06;5074298;28;20067;-57
2021/11/21 04:27:13;;;;;;;21.63;16.55;;;;;;;14.95;31.83;94613.81;5076486;28;20068;-59
2021/11/21 04:29:40;;;;;;;21.85;18.23;;;;;;;15.29;31.31;94631.50;5076941;28;20182;-56
2021/11/21 04:32:07;;;;;;;21.90;18.02;;;;;;;15.22;31.23;94627.78;5077298;28;20435;-55
2021/11/21 04:34:35;;;;;;;21.17;18.65;;;;;;;15.18;31.60;94622.38;5075984;28;20482;-54
2021/11/21 04:37:03;;;;;;;23.90;17.40;;;;;;;15.59;30.58;94621.16;5077270;28;20684;-56
2021/11/21 04:39:30;;;;;;;24.73;19.25;;;;;;;15.53;30.98;94625.00;5076708;28;20059;-56
2021/11/21 04:41:57;;;;;;;24.38;18.25;;;;;;;15.33;30.75;94618.50;5066395;28;20075;-55
2021/11/21 04:44:24;;;;;;;22.05;19.35;;;;;;;16.00;30.21;94625.94;5070350;28;20075;-55
2021/11/21 04:46:51;;;;;;;23.52;18.60;;;;;;;15.69;30.73;94615.59;5077015;28;20060;-58
2021/11/21 04:49:19;;;;;;;23.65;17.15;;;;;;;15.75;30.71;94619.59;5076197;28;20504;-59
2021/11/21 04:51:46;;;;;;;23.52;18.75;;;;;;;15.79;29.41;94620.53;5076284;28;20367;-57
2021/11/21 04:54:18;;;;;;;21.35;18.08;;;;;;;15.96;29.89;94620.50;5076817;28;20060;-56
2021/11/21 04:56:47;;;;;;;22.15;18.15;;;;;;;16.95;29.05;94615.81;5071702;28;20045;-54
2021/11/21 04:59:15;;;;;;;21.52;18.10;;;;;;;15.86;30.09;94610.28;5056612;28;20076;-56
2021/11/21 05:01:43;;;;;;;18.10;15.43;;;;;;;15.63;29.86;94616.84;5076329;28;20073;-54
2021/11/21 05:04:10;;;;;;;18.60;15.70;;;;;;;15.46;30.83;94608.91;5068294;28;20048;-56
2021/11/21 05:06:37;;;;;;;20.10;17.42;;;;;;;14.70;31.32;94609.25;5038971;28;20045;-58
2021/11/21 05:09:06;;;;;;;21.42;18.48;;;;;;;14.18;32.46;94609.03;5056484;28;20052;-54
2021/11/21 05:11:34;;;;;;;21.40;17.60;;;;;;;13.70;32.81;94616.78;5074264;28;20055;-59
2021/11/21 05:14:04;;;;;;;24.90;17.35;;;;;;;13.66;33.36;94611.34;5065777;28;20132;-56
2021/11/21 05:16:33;;;;;;;21.05;17.67;;;;;;;13.30;33.45;94616.66;5043460;28;20041;-56
2021/11/21 05:19:01;;;;;;;21.60;16.95;;;;;;;13.55;33.24;94616.09;5056870;28;20051;-53
2021/11/21 05:21:29;;;;;;;23.95;17.73;;;;;;;13.39;33.80;94611.47;5068774;28;20084;-57
2021/11/21 05:23:56;;;;;;;21.90;17.23;;;;;;;13.63;33.31;94606.69;5063741;28;20063;-53
2021/11/21 05:26:24;;;;;;;22.50;17.10;;;;;;;13.38;33.49;94610.69;5076299;28;20053;-52
2021/11/21 05:28:51;;;;;;;22.25;17.05;;;;;;;13.45;33.69;94600.53;5076066;28;20363;-53
2021/11/21 05:31:19;;;;;;;21.45;17.63;;;;;;;13.67;32.56;94612.13;5075703;28;20362;-56
2021/11/21 05:33:46;;;;;;;21.73;17.27;;;;;;;14.40;31.77;94608.19;5074859;28;20510;-54
2021/11/21 05:36:13;;;;;;;21.77;17.48;;;;;;;14.04;32.33;94605.69;5074755;28;20047;-54
2021/11/21 05:38:40;;;;;;;21.58;18.10;;;;;;;13.87;32.49;94609.78;5075965;28;20052;-54
2021/11/21 05:41:09;;;;;;;25.40;19.52;;;;;;;14.54;31.78;94608.88;5074582;28;20055;-57
2021/11/21 05:43:36;;;;;;;22.75;18.33;;;;;;;14.15;31.25;94607.78;5062038;28;20056;-56
2021/11/21 05:46:04;;;;;;;23.27;19.33;;;;;;;14.36;31.83;94599.38;5075926;28;20047;-54
2021/11/21 05:48:31;;;;;;;27.08;20.73;;;;;;;14.07;32.60;94605.13;5075651;28;20450;-52
2021/11/21 05:50:58;;;;;;;23.50;20.00;;;;;;;14.52;31.57;94605.78;5075253;28;20053;-54
2021/11/21 05:53:25;;;;;;;25.13;21.05;;;;;;;14.31;31.96;94604.75;5075358;28;20063;-55
2021/11/21 05:55:53;;;;;;;24.50;21.15;;;;;;;14.41;32.19;94600.00;5074743;28;20044;-59
2021/11/21 05:58:23;;;;;;;23.55;19.75;;;;;;;14.44;31.59;94603.91;5074615;28;20044;-66
2021/11/21 06:00:50;;;;;;;23.15;19.38;;;;;;;15.34;30.49;94607.63;5065515;28;20451;-46
2021/11/21 06:03:17;;;;;;;22.92;19.63;;;;;;;14.67;31.88;94608.00;5061051;28;20052;-49
2021/11/21 06:05:44;;;;;;;26.00;19.92;;;;;;;14.14;32.75;94600.97;5072784;28;20055;-57
2021/11/21 06:08:12;;;;;;;27.90;18.77;;;;;;;15.61;30.61;94603.16;5060007;28;20056;-45
2021/11/21 06:10:41;;;;;;;24.27;18.60;;;;;;;15.51;30.59;94612.16;5061798;28;20051;-47
2021/11/21 06:13:09;;;;;;;22.25;18.75;;;;;;;15.26;31.12;94603.16;5074517;28;20044;-53
2021/11/21 06:15:36;;;;;;;24.08;17.80;;;;;;;15.82;30.80;94603.31;5052832;28;20049;-45
2021/11/21 06:18:03;;;;;;;22.27;18.45;;;;;;;16.54;29.51;94600.63;5069600;28;20052;-51
2021/11/21 06:20:31;;;;;;;23.17;18.70;;;;;;;16.03;30.60;94606.84;5060039;28;20044;-56
2021/11/21 06:22:58;;;;;;;24.13;19.60;;;;;;;15.91;30.86;94612.78;5074013;28;20040;-54
2021/11/21 06:25:26;;;;;;;22.52;18.65;;;;;;;16.09;30.89;94610.06;5073693;28;20413;-53
2021/11/21 06:27:53;;;;;;;25.25;18.95;;;;;;;16.33;30.81;94607.69;5074563;28;20044;-49
2021/11/21 06:30:20;;;;;;;21.98;18.73;;;;;;;16.35;30.80;94610.78;5082091;28;20122;-48
2021/11/21 06:32:47;;;;;;;21.65;18.58;;;;;;;16.83;30.12;94604.38;5074176;28;20131;-51
2021/11/21 06:35:14;;;;;;;21.50;18.48;;;;;;;16.93;29.56;94609.31;5071892;28;20040;-49
2021/11/21 06:37:44;;;;;;;24.67;18.77;;;;;;;17.06;29.34;94608.28;5074873;28;20048;-48
2021/11/21 06:40:12;;;;;;;26.65;20.02;;;;;;;17.11;29.59;94608.09;5073758;28;20416;-50
2021/11/21 06:42:41;;;;;;;27.35;21.30;;;;;;;17.35;29.13;94606.69;5074920;28;20048;-52
2021/11/21 06:45:09;;;;;;;21.73;17.73;;;;;;;17.15;29.23;94616.91;5074598;28;20564;-49
2021/11/21 06:47:37;;;;;;;23.73;18.30;;;;;;;17.40;29.32;94611.78;5060940;28;20428;-52
2021/11/21 06:50:06;;;;;;;25.58;20.45;;;;;;;17.24;29.80;94608.97;5057101;28;20052;-48
2021/11/21 06:52:34;;;;;;;30.17;21.92;;;;;;;17.03;30.04;94598.38;5073990;28;20052;-51
2021/11/21 06:55:03;;;;;;;22.20;18.42;;;;;;;17.48;29.38;94608.31;5074703;28;20052;-50
2021/11/21 06:57:31;;;;;;;21.05;16.02;;;;;;;17.73;29.54;94588.06;5072741;28;20040;-50
2021/11/21 06:59:58;;;;;;;21.15;16.35;;;;;;;17.58;29.11;94584.91;5061791;28;20049;-56
2021/11/21 07:02:25;;;;;;;23.92;17.75;;;;;;;17.45;29.39;94590.47;5061987;28;20048;-50
2021/11/21 07:04:52;;;;;;;22.73;16.48;;;;;;;17.22;29.57;94584.72;5065276;28;20048;-50
2021/11/21 07:07:19;;;;;;;22.50;17.98;;;;;;;17.70;28.95;94578.94;5063034;28;20052;-48
2021/11/21 07:09:48;;;;;;;24.50;16.63;;;;;;;18.33;27.73;94579.50;5064008;28;20052;-48
2021/11/21 07:12:15;;;;;;;21.05;16.52;;;;;;;17.54;29.52;94586.66;5062363;28;20435;-49
2021/11/21 07:14:42;;;;;;;20.98;16.48;;;;;;;17.52;29.84;94577.50;5073948;28;20052;-56
2021/11/21 07:17:14;;;;;;;18.50;16.27;;;;;;;17.53;28.71;94579.03;5056409;28;20059;-53
2021/11/21 07:19:41;;;;;;;20.48;16.70;;;;;;;17.90;28.60;94571.25;5073548;28;20052;-51
2021/11/21 07:22:08;;;;;;;25.17;19.73;;;;;;;17.69;29.10;94577.34;5072226;28;20052;-51
2021/11/21 07:24:35;;;;;;;24.05;20.70;;;;;;;17.49;30.29;94573.63;5070749;28;20045;-50
2021/11/21 07:27:03;;;;;;;27.98;22.42;;;;;;;17.68;29.01;94575.81;5063584;28;20057;-61
2021/11/21 07:29:31;;;;;;;29.38;23.75;;;;;;;17.26;30.09;94580.34;5045843;28;20755;-69
2021/11/21 07:32:03;;;;;;;29.73;24.30;;;;;;;17.01;30.13;94574.16;5064771;28;20048;-68
2021/11/21 07:34:30;;;;;;;28.85;24.33;;;;;;;17.20;29.85;94574.47;5064868;28;20044;-54
2021/11/21 07:36:58;;;;;;;32.95;26.48;;;;;;;17.71;29.10;94567.25;5062352;28;20343;-71
2021/11/21 07:39:25;;;;;;;36.70;29.33;;;;;;;17.50;29.44;94569.13;5063196;28;20051;-63
2021/11/21 07:41:52;;;;;;;37.47;30.73;;;;;;;16.62;30.85;94576.03;5062572;28;20044;-62
2021/11/21 07:44:19;;;;;;;38.80;30.75;;;;;;;16.57;31.17;94575.44;5065338;28;20044;-60
2021/11/21 07:46:46;;;;;;;32.22;27.95;;;;;;;17.03;30.38;94573.81;5071873;28;20486;-67
2021/11/21 07:49:14;;;;;;;32.97;29.20;;;;;;;16.96;30.36;94576.97;5073677;28;20049;-46
2021/11/21 07:51:41;;;;;;;38.28;29.52;;;;;;;17.45;30.16;94571.97;5055767;28;20048;-54
2021/11/21 07:54:09;;;;;;;35.60;31.02;;;;;;;17.42;29.78;94572.59;5073240;28;20495;-48
2021/11/21 07:56:36;;;;;;;36.42;29.88;;;;;;;17.31;29.70;94577.50;5074347;28;20367;-48
2021/11/21 07:59:03;;;;;;;40.55;29.98;;;;;;;17.45;30.30;94577.25;5073973;28;20059;-57
2021/11/21 08:01:30;;;;;;;32.58;27.40;;;;;;;17.48;30.74;94571.31;5074211;28;20063;-48
2021/11/21 08:03:58;;;;;;;32.00;25.88;;;;;;;17.54;30.67;94564.72;5073791;28;20045;-43
2021/11/21 08:06:25;;;;;;;38.03;32.20;;;;;;;17.20;31.35;94577.13;5074158;28;20048;-52
2021/11/21 08:08:52;;;;;;;42.38;34.05;;;;;;;17.41;30.83;94581.63;5072557;28;20052;-47
2021/11/21 08:11:19;;;;;;;43.38;36.40;;;;;;;17.30;30.57;94575.97;5073837;28;20041;-57
2021/11/21 08:13:46;;;;;;;49.78;38.65;;;;;;;17.36;30.51;94582.59;5073703;28;20051;-47
2021/11/21 08:16:13;;;;;;;53.42;40.30;;;;;;;17.38;30.53;94576.97;5073828;28;20497;-48
2021/11/21 08:18:40;;;;;;;48.90;39.72;;;;;;;17.78;30.63;94570.13;5073071;28;20047;-48
2021/11/21 08:21:07;;;;;;;61.67;46.17;;;;;;;17.46;30.78;94573.50;5073301;28;20048;-48
2021/11/21 08:23:34;;;;;;;68.18;52.97;;;;;;;17.93;30.06;94574.00;5073727;28;20059;-49
2021/11/21 08:26:02;;;;;;;58.92;47.47;;;;;;;17.64;30.72;94568.81;5059841;28;20045;-48
2021/11/21 08:28:29;;;;;;;52.53;43.20;;;;;;;17.88;30.45;94580.28;5069944;28;20040;-65
2021/11/21 08:30:56;;;;;;;42.95;38.33;;;;;;;18.12;29.85;94578.81;5077420;28;20052;-52
2021/11/21 08:33:23;;;;;;;39.85;35.28;;;;;;;17.97;30.56;94582.09;5077163;28;20391;-55
2021/11/21 08:35:50;;;;;;;37.78;31.02;;;;;;;17.92;30.10;94582.28;5075743;28;20052;-44
2021/11/21 08:38:17;;;;;;;32.88;28.67;;;;;;;18.14;30.15;94574.72;5076809;28;20044;-54
2021/11/21 08:40:44;;;;;;;32.75;28.10;;;;;;;18.54;30.46;94568.06;5077278;28;20048;-54
2021/11/21 08:43:11;;;;;;;31.35;26.55;;;;;;;18.61;29.10;94569.03;5076757;28;20063;-47
2021/11/21 08:45:38;;;;;;;30.58;26.48;;;;;;;18.40;29.09;94566.47;5071234;28;20049;-55
2021/11/21 08:48:06;;;;;;;32.95;25.92;;;;;;;18.78;29.31;94565.44;5065901;28;20045;-49
2021/11/21 08:50:33;;;;;;;29.40;24.50;;;;;;;18.76;29.23;94562.34;5076199;28;20044;-46
2021/11/21 08:53:00;;;;;;;31.90;24.48;;;;;;;19.16;29.17;94556.31;5075199;28;20056;-50
2021/11/21 08:55:27;;;;;;;27.65;24.13;;;;;;;19.27;28.29;94552.09;5070110;28;20064;-47
2021/11/21 08:57:55;;;;;;;29.77;25.73;;;;;;;19.22;28.85;94544.34;5063752;28;20328;-47
2021/11/21 09:00:22;;;;;;;32.97;26.30;;;;;;;18.68;29.47;94542.78;5076853;28;20044;-47
2021/11/21 09:02:50;;;;;;;29.58;26.45;;;;;;;18.11;30.10;94534.94;5074158;28;20043;-46
2021/11/21 09:05:18;;;;;;;31.65;26.60;;;;;;;18.55;29.16;94535.94;5068299;28;20048;-45
2021/11/21 09:07:45;;;;;;;33.05;27.25;;;;;;;19.34;28.00;94515.19;5063823;28;20082;-43
2021/11/21 09:10:17;;;;;;;29.67;26.45;;;;;;;19.54;28.13;94521.44;5058196;28;20048;-46
2021/11/21 09:12:44;;;;;;;32.42;27.60;;;;;;;18.64;29.26;94514.69;5056034;28;20041;-48
2021/11/21 09:15:14;;;;;;;31.92;27.63;;;;;;;18.60;29.30;94524.34;5054349;28;20055;-51
2021/11/21 09:17:47;;;;;;;29.98;26.75;;;;;;;18.78;28.48;94509.81;5059310;28;20455;-48
2021/11/21 09:20:14;;;;;;;50.38;40.15;;;;;;;18.47;29.00;94519.06;5076602;28;20477;-46
2021/11/21 09:22:42;;;;;;;38.17;33.72;;;;;;;20.04;26.57;94515.50;5075295;28;20056;-48
2021/11/21 09:25:10;;;;;;;35.55;31.27;;;;;;;19.82;26.87;94510.78;5072245;28;20056;-54
2021/11/21 09:27:37;;;;;;;33.47;29.75;;;;;;;19.99;26.88;94502.47;5074841;28;20477;-48
2021/11/21 09:30:07;;;;;;;36.05;30.45;;;;;;;19.42;27.50;94496.47;5075843;28;20049;-48
2021/11/21 09:32:35;;;;;;;17.77;15.77;;;;;;;19.65;27.51;94495.94;5076731;28;20052;-47
2021/11/21 09:35:03;;;;;;;24.33;19.90;;;;;;;19.89;27.11;94490.50;5075005;28;20045;-47
2021/11/21 09:37:30;;;;;;;21.65;19.40;;;;;;;19.92;27.21;94487.16;5075465;28;20048;-47
2021/11/21 09:39:57;;;;;;;12.50;11.05;;;;;;;20.19;27.03;94488.19;5075307;28;20044;-49
2021/11/21 09:42:24;;;;;;;12.02;10.82;;;;;;;20.71;26.60;94473.84;5061408;28;20053;-49
2021/11/21 09:44:51;;;;;;;14.63;13.13;;;;;;;20.25;26.76;94483.38;5065825;28;20439;-50
2021/11/21 09:47:19;;;;;;;10.88;9.77;;;;;;;20.86;25.89;94474.91;5075211;28;20056;-48
2021/11/21 09:49:46;;;;;;;13.50;12.13;;;;;;;20.52;26.45;94460.50;5075767;28;20044;-49
2021/11/21 09:52:16;;;;;;;15.20;13.63;;;;;;;20.32;26.98;94455.13;5074312;28;20494;-49
2021/11/21 09:54:44;;;;;;;18.50;16.50;;;;;;;20.95;25.71;94456.88;5074581;28;20057;-51
2021/11/21 09:57:11;;;;;;;18.77;16.80;;;;;;;21.36;24.88;94444.81;5075282;28;20044;-49
2021/11/21 09:59:53;;;;;;;21.23;17.27;;;;;;;21.75;25.64;94450.78;5047827;28;20060;-48
2021/11/21 10:02:23;;;;;;;19.50;17.50;;;;;;;22.35;23.70;94439.59;5055667;28;20052;-51
2021/11/21 10:04:52;;;;;;;18.58;16.67;;;;;;;21.77;24.71;94439.78;5073793;28;20063;-50
2021/11/21 10:07:28;;;;;;;18.20;16.40;;;;;;;22.22;24.63;94432.94;5072272;28;20049;-49
2021/11/21 10:09:57;;;;;;;18.38;14.93;;;;;;;22.38;23.98;94430.88;5055400;28;20071;-49
2021/11/21 10:12:26;;;;;;;16.85;14.65;;;;;;;21.91;24.65;94432.06;5054731;28;20387;-51
2021/11/21 10:15:03;;;;;;;17.30;15.60;;;;;;;22.39;24.35;94425.22;5073606;28;20051;-52
2021/11/21 10:17:32;;;;;;;19.08;14.43;;;;;;;22.25;24.19;94416.25;5074009;28;20044;-51
2021/11/21 10:20:20;;;;;;;15.85;14.35;;;;;;;22.33;23.60;94420.53;5074182;28;20052;-49
2021/11/21 10:22:56;;;;;;;16.15;14.60;;;;;;;23.19;22.98;94407.22;5066196;28;20079;-48
2021/11/21 10:25:37;;;;;;;16.25;14.55;;;;;;;23.19;22.92;94412.53;5074616;28;20079;-51
2021/11/21 10:28:26;;;;;;;15.80;13.98;;;;;;;22.02;24.20;94400.28;5073862;28;20057;-50
2021/11/21 10:31:00;;;;;;;16.83;15.13;;;;;;;22.56;25.24;94391.94;5053627;28;20440;-49
2021/11/21 10:33:41;;;;;;;16.92;15.25;;;;;;;22.39;24.67;94387.16;5061774;28;20779;-50
2021/11/21 10:36:24;;;;;;;17.92;15.85;;;;;;;22.67;24.09;94384.88;5074529;28;20059;-49
2021/11/21 10:38:57;;;;;;;16.85;15.25;;;;;;;22.35;24.25;94386.31;5074655;28;20044;-48
2021/11/21 10:41:28;;;;;;;17.38;15.50;;;;;;;22.26;24.49;94378.59;5074679;28;20074;-49
2021/11/21 10:44:15;;;;;;;15.95;14.32;;;;;;;23.34;23.30;94376.88;5073918;28;20071;-49
2021/11/21 10:46:58;;;;;;;17.60;14.68;;;;;;;22.83;23.32;94375.94;5073622;28;20040;-48
2021/11/21 10:49:36;;;;;;;21.08;15.82;;;;;;;22.54;24.46;94362.25;5074039;28;20075;-51
2021/11/21 10:52:18;;;;;;;18.08;15.77;;;;;;;22.27;24.17;94352.75;5074005;28;20122;-48
2021/11/21 10:54:51;;;;;;;15.82;14.27;;;;;;;22.43;23.83;94361.34;5074298;28;20482;-48
2021/11/21 10:57:23;;;;;;;15.90;14.32;;;;;;;22.74;23.74;94350.31;5074020;28;20785;-49
2021/11/21 10:59:52;;;;;;;19.92;14.73;;;;;;;23.19;23.73;94351.22;5073549;28;20044;-50
2021/11/21 11:02:28;;;;;;;17.20;15.35;;;;;;;22.35;24.11;94349.03;5056293;28;20052;-48
2021/11/21 11:05:17;;;;;;;15.38;13.82;;;;;;;22.07;24.12;94334.22;5056347;28;20044;-49
2021/11/21 11:07:47;;;;;;;15.90;14.27;;;;;;;23.28;22.88;94330.34;5074064;28;20075;-49
2021/11/21 11:10:26;;;;;;;16.83;14.52;;;;;;;22.88;23.02;94327.63;5073393;28;20044;-49
2021/11/21 11:13:00;;;;;;;16.15;14.48;;;;;;;23.37;23.02;94332.69;5074081;28;20040;-49
2021/11/21 11:15:29;;;;;;;17.25;15.18;;;;;;;22.71;24.02;94321.72;5084660;28;20048;-52
2021/11/21 11:17:57;;;;;;;19.65;15.98;;;;;;;22.38;24.27;94319.81;5074123;28;20045;-54
2021/11/21 11:20:24;;;;;;;17.75;15.77;;;;;;;23.52;22.35;94317.59;5056459;28;20446;-50
2021/11/21 11:22:52;;;;;;;16.33;14.73;;;;;;;22.64;23.33;94308.34;5055306;28;20045;-50
2021/11/21 11:25:31;;;;;;;18.88;16.80;;;;;;;22.66;23.68;94306.06;5073335;28;20485;-50